Latest Weather Observations for Yanakie

IDV60801

Issued at 10:32 am EST Thursday 28 July 2016 (issued every 30 minutes, with the page automatically refreshed every 10 minutes)

About weather observations | Map of weather stations | Latest weather observations for VIC | Other Formats
Station Details ID: 085301 Name: YANAKIE Lat: -38.81 Lon: 146.19 Height: 13.3 m
Data from the previous 72 hours. | See also: Recent months at Yanakie
Date/Time
EST
Temp
°C
App
Temp
°C
Dew
Point
°C
Rel
Hum
%
Delta-T
°C
Wind Press
QNH
hPa
Press
MSL
hPa
Rain since
9am
mm
Dir  Spd
km/h
Gust
km/h
Spd
kts
Gust
kts
28/10:30am 11.5 4.0 8.0 79 1.7 WNW 37 50 20 27 1020.2 1020.2 0.0
28/10:00am 11.1 3.2 8.0 81 1.5 WNW 39 54 21 29 1020.1 1020.1 0.0
28/09:30am 10.8 3.2 7.7 81 1.5 NW 37 54 20 29 1020.0 1020.0 0.0
28/09:00am 10.4 2.8 7.5 82 1.4 NW 37 50 20 27 1019.9 1019.9 0.6
28/08:30am 10.2 2.2 7.4 83 1.3 NW 39 57 21 31 1019.5 1019.5 0.6
28/08:27am 10.1 2.4 7.3 83 1.3 NW 37 57 20 31 1019.5 1019.5 0.6
28/08:00am 9.5 2.6 7.1 85 1.1 NW 33 52 18 28 1019.6 1019.6 0.6
28/07:30am 9.6 2.3 7.2 85 1.1 NW 35 48 19 26 1019.5 1019.5 0.6
28/07:00am 9.4 2.1 7.0 85 1.1 NW 35 52 19 28 1019.4 1019.4 0.6
28/06:30am 9.7 2.4 7.1 84 1.2 NW 35 54 19 29 1019.0 1019.0 0.6
28/06:04am 9.8 2.9 7.4 85 1.1 NW 33 57 18 31 1018.5 1018.5 0.6
28/06:00am 9.7 2.4 7.3 85 1.1 NW 35 50 19 27 1018.6 1018.6 0.6
28/05:30am 9.6 2.7 7.2 85 1.1 WNW 33 46 18 25 1018.5 1018.5 0.6
28/05:00am 9.6 2.3 7.2 85 1.1 WNW 35 50 19 27 1018.0 1018.0 0.6
28/04:30am 9.3 2.5 7.1 86 1.0 WNW 32 43 17 23 1018.1 1018.1 0.6
28/04:18am 9.3 2.5 7.1 86 1.0 WNW 32 50 17 27 1018.1 1018.1 0.6
28/04:00am 9.4 2.1 7.0 85 1.1 WNW 35 46 19 25 1018.2 1018.2 0.6
28/03:30am 9.3 1.6 6.9 85 1.1 WNW 37 48 20 26 1018.0 1018.0 0.6
28/03:00am 9.2 1.5 7.0 86 1.0 WNW 37 50 20 27 1018.4 1018.4 0.6
28/02:30am 9.3 1.6 6.9 85 1.1 NW 37 50 20 27 1018.4 1018.4 0.6
28/02:00am 9.0 2.2 7.0 87 0.9 NW 32 44 17 24 1018.6 1018.6 0.6
28/01:30am 9.1 2.2 7.1 87 0.9 WNW 33 44 18 24 1018.3 1018.3 0.6
28/01:00am 9.0 2.0 7.0 87 0.9 WNW 33 46 18 25 1018.1 1018.1 0.6
28/12:30am 8.8 1.9 7.1 89 0.8 WNW 33 44 18 24 1018.0 1018.0 0.6
28/12:00am 8.9 1.9 6.7 86 1.0 WNW 33 48 18 26 1018.3 1018.3 0.6
 
Date/Time
EST
Temp
°C
App
Temp
°C
Dew
Point
°C
Rel
Hum
%
Delta-T
°C
Wind Press
QNH
hPa
Press
MSL
hPa
Rain since
9am
mm
Dir  Spd
km/h
Gust
km/h
Spd
kts
Gust
kts
27/11:30pm 8.6 0.8 6.6 87 0.9 NW 37 50 20 27 1018.1 1018.1 0.6
27/11:00pm 8.8 1.4 6.6 86 1.0 NW 35 50 19 27 1018.2 1018.2 0.6
27/10:30pm 8.8 1.4 6.6 86 1.0 NW 35 46 19 25 1018.0 1018.0 0.6
27/10:04pm 8.8 1.8 6.8 87 0.9 WNW 33 52 18 28 1018.0 1018.0 0.6
27/10:00pm 8.8 1.8 6.9 88 0.9 WNW 33 48 18 26 1017.8 1017.8 0.6
27/09:30pm 8.7 2.0 7.2 90 0.7 NW 32 44 17 24 1018.1 1018.1 0.6
27/09:00pm 8.7 2.0 7.2 90 0.7 WNW 32 43 17 23 1018.3 1018.3 0.4
27/08:30pm 8.7 2.7 7.2 90 0.7 WNW 28 41 15 22 1018.1 1018.1 0.4
27/08:00pm 8.9 2.2 7.4 90 0.7 WNW 32 46 17 25 1018.0 1018.0 0.4
27/07:33pm 9.6 2.3 7.4 86 1.0 W 35 54 19 29 1017.9 1017.9 0.2
27/07:30pm 9.4 2.1 7.2 86 1.0 W 35 46 19 25 1017.9 1017.9 0.2
27/07:09pm 9.4 2.6 7.0 85 1.1 W 32 50 17 27 1017.6 1017.6 0.2
27/07:00pm 9.4 2.1 7.0 85 1.1 W 35 46 19 25 1017.5 1017.5 0.2
27/06:30pm 9.2 2.8 7.0 86 1.0 WNW 30 44 16 24 1017.0 1017.0 0.2
27/06:09pm 8.9 2.4 6.7 86 1.0 WNW 30 48 16 26 1016.5 1016.5 0.2
27/06:00pm 9.2 2.6 5.9 80 1.5 W 30 39 16 21 1016.4 1016.4 0.0
27/05:30pm 9.6 1.2 5.4 75 1.9 W 39 52 21 28 1015.9 1015.9 0.0
27/05:01pm 9.7 1.6 5.1 73 2.1 W 37 57 20 31 1015.7 1015.7 0.0
27/05:00pm 9.8 2.0 5.0 72 2.2 W 35 48 19 26 1015.7 1015.7 0.0
27/04:30pm 9.7 2.4 5.3 74 2.0 W 33 46 18 25 1015.6 1015.6 0.0
27/04:05pm 9.8 0.5 5.0 72 2.2 W 43 67 23 36 1015.4 1015.4 0.0
27/04:00pm 10.0 1.4 4.6 69 2.4 W 39 52 21 28 1015.3 1015.3 0.0
27/03:39pm 10.3 2.1 4.9 69 2.4 W 37 65 20 35 1014.9 1014.9 0.0
27/03:30pm 10.2 2.8 5.2 71 2.3 W 33 44 18 24 1014.7 1014.7 0.0
27/03:00pm 10.3 0.8 4.0 65 2.8 W 43 54 23 29 1014.3 1014.3 0.0
27/02:42pm 10.7 3.1 5.7 71 2.3 W 35 56 19 30 1014.0 1014.0 0.0
27/02:30pm 9.9 2.2 5.3 73 2.1 W 35 48 19 26 1014.0 1014.0 0.0
27/02:20pm 9.5 0.1 5.3 75 1.9 W 44 63 24 34 1014.1 1014.1 0.0
27/02:00pm 11.2 3.2 4.0 61 3.2 W 35 54 19 29 1013.3 1013.3 0.0
27/01:30pm 10.5 1.9 4.4 66 2.7 W 39 48 21 26 1013.3 1013.3 0.0
27/01:00pm 10.7 3.4 4.6 66 2.7 WSW 32 39 17 21 1012.9 1012.9 0.0
27/12:30pm 10.8 3.7 5.3 69 2.5 WSW 32 43 17 23 1012.9 1012.9 0.0
27/12:00pm 11.4 3.4 3.9 60 3.3 WSW 35 44 19 24 1012.7 1012.7 0.0
27/11:30am 10.4 3.1 4.3 66 2.7 WSW 32 43 17 23 1012.8 1012.8 0.0
27/11:02am 9.4 2.7 5.4 76 1.8 SW 30 50 16 27 1012.8 1012.8 0.0
27/11:00am 9.4 2.3 5.4 76 1.8 SW 32 50 17 27 1012.7 1012.7 0.0
27/10:45am 11.4 4.6 5.1 65 2.9 WSW 30 48 16 26 1012.4 1012.4 0.0
27/10:30am 10.6 4.0 4.3 65 2.8 WSW 28 43 15 23 1012.1 1012.1 0.0
27/10:00am 10.3 3.4 4.7 68 2.5 SW 30 41 16 22 1011.8 1011.8 0.0
27/09:39am 9.8 2.9 4.8 71 2.2 SW 30 50 16 27 1011.2 1011.2 0.0
27/09:30am 10.3 3.8 4.7 68 2.5 SW 28 37 15 20 1010.8 1010.8 0.0
27/09:00am 10.2 3.1 5.4 72 2.2 SW 32 46 17 25 1009.9 1009.9 2.6
27/08:30am 10.0 3.8 6.0 76 1.8 SW 28 39 15 21 1008.9 1008.9 2.6
27/08:00am 9.9 2.3 5.9 76 1.8 SW 35 48 19 26 1008.0 1008.0 2.6
27/07:30am 8.7 1.9 7.0 89 0.8 WNW 32 44 17 24 1007.2 1007.2 1.6
27/07:00am 8.9 3.1 6.3 84 1.2 NW 26 37 14 20 1006.2 1006.2 0.4
27/06:30am 8.9 1.9 5.8 81 1.4 NW 32 43 17 23 1005.6 1005.6 0.4
27/06:00am 9.2 2.1 5.4 77 1.7 NW 32 43 17 23 1005.1 1005.1 0.4
27/05:30am 9.2 2.4 5.2 76 1.8 NW 30 39 16 21 1004.8 1004.8 0.4
27/05:00am 9.0 2.2 5.0 76 1.8 NW 30 41 16 22 1004.4 1004.4 0.4
27/04:30am 8.8 2.7 4.8 76 1.8 NW 26 35 14 19 1004.2 1004.2 0.4
27/04:00am 8.4 1.8 4.4 76 1.8 NW 28 39 15 21 1003.9 1003.9 0.4
27/03:30am 8.4 1.4 4.2 75 1.8 NW 30 41 16 22 1003.4 1003.4 0.4
27/03:00am 8.9 1.9 4.1 72 2.1 NW 30 44 16 24 1003.5 1003.5 0.4
27/02:30am 9.0 1.9 3.8 70 2.3 NW 30 48 16 26 1003.6 1003.6 0.4
27/02:25am 9.0 1.9 3.8 70 2.3 NW 30 48 16 26 1003.5 1003.5 0.4
27/02:00am 9.0 2.7 3.8 70 2.3 NW 26 41 14 22 1003.6 1003.6 0.4
27/01:30am 9.3 3.3 3.5 67 2.5 NW 24 39 13 21 1003.6 1003.6 0.4
27/01:00am 9.5 2.8 3.5 66 2.6 NW 28 39 15 21 1004.1 1004.1 0.4
27/12:30am 9.5 3.9 3.5 66 2.6 NW 22 33 12 18 1004.3 1004.3 0.4
27/12:00am 9.6 3.9 3.1 64 2.8 NW 22 39 12 21 1004.4 1004.4 0.4
 
Date/Time
EST
Temp
°C
App
Temp
°C
Dew
Point
°C
Rel
Hum
%
Delta-T
°C
Wind Press
QNH
hPa
Press
MSL
hPa
Rain since
9am
mm
Dir  Spd
km/h
Gust
km/h
Spd
kts
Gust
kts
26/11:30pm 8.9 3.8 3.1 67 2.5 NNW 19 28 10 15 1004.6 1004.6 0.4
26/11:00pm 9.0 3.0 3.2 67 2.5 NNW 24 37 13 20 1004.9 1004.9 0.4
26/10:30pm 9.1 2.7 3.3 67 2.5 NNW 26 39 14 21 1005.0 1005.0 0.4
26/10:00pm 9.2 3.2 3.4 67 2.5 NNW 24 43 13 23 1004.9 1004.9 0.4
26/09:43pm 9.1 2.3 3.3 67 2.5 NNW 28 46 15 25 1004.9 1004.9 0.4
26/09:30pm 8.6 1.9 3.4 70 2.2 NNW 28 43 15 23 1005.1 1005.1 0.4
26/09:13pm 8.9 1.4 3.3 68 2.4 NNW 32 50 17 27 1005.3 1005.3 0.4
26/09:00pm 8.7 1.9 3.3 69 2.3 NW 28 41 15 22 1005.6 1005.6 0.4
26/08:30pm 8.6 1.8 3.2 69 2.3 NNW 28 39 15 21 1005.8 1005.8 0.4
26/08:00pm 8.3 2.7 3.2 70 2.2 NNW 22 33 12 18 1006.1 1006.1 0.4
26/07:30pm 8.1 2.0 3.0 70 2.2 NW 24 39 13 21 1006.3 1006.3 0.4
26/07:00pm 8.4 1.9 2.8 68 2.4 NW 26 37 14 20 1006.4 1006.4 0.4
26/06:30pm 7.9 2.6 3.0 71 2.1 NNW 20 33 11 18 1006.4 1006.4 0.4
26/06:00pm 7.8 2.1 2.9 71 2.1 NW 22 28 12 15 1006.6 1006.6 0.4
26/05:30pm 7.7 3.3 2.6 70 2.1 NNW 15 19 8 10 1006.7 1006.7 0.4
26/05:00pm 8.6 2.9 2.8 67 2.5 NW 22 32 12 17 1006.9 1006.9 0.4
26/04:30pm 9.1 1.9 2.9 65 2.6 NW 30 44 16 24 1007.2 1007.2 0.4
26/04:00pm 8.9 1.7 2.9 66 2.6 NW 30 43 16 23 1007.5 1007.5 0.4
26/03:30pm 9.2 1.6 2.8 64 2.7 NW 32 41 17 22 1007.9 1007.9 0.4
26/03:00pm 9.3 1.6 2.4 62 2.9 NW 32 44 17 24 1007.9 1007.9 0.4
26/02:36pm 9.4 1.7 2.3 61 3.0 NW 32 50 17 27 1007.9 1007.9 0.4
26/02:30pm 9.3 1.5 2.9 64 2.7 NW 33 52 18 28 1008.1 1008.1 0.4
26/02:12pm 9.3 1.5 3.1 65 2.7 NW 33 52 18 28 1008.2 1008.2 0.4
26/02:00pm 9.4 1.3 3.2 65 2.7 NW 35 46 19 25 1008.7 1008.7 0.4
26/01:39pm 9.6 1.8 3.1 64 2.8 NW 33 57 18 31 1008.7 1008.7 0.4
26/01:30pm 9.8 1.0 3.8 66 2.6 NW 39 52 21 28 1009.0 1009.0 0.4
26/01:01pm 9.7 1.4 4.1 68 2.5 NW 37 57 20 31 1009.2 1009.2 0.4
26/01:00pm 9.7 1.3 3.9 67 2.5 NW 37 50 20 27 1009.2 1009.2 0.4
26/12:31pm 9.5 0.0 3.7 67 2.5 NW 43 61 23 33 1009.5 1009.5 0.4
26/12:30pm 9.4 -0.4 3.6 67 2.5 NW 44 61 24 33 1009.5 1009.5 0.4
26/12:00pm 9.1 0.0 3.9 70 2.3 NW 41 59 22 32 1009.5 1009.5 0.4
26/11:30am 8.9 0.2 3.9 71 2.2 NW 39 57 21 31 1009.8 1009.8 0.4
26/11:22am 8.8 0.8 3.8 71 2.2 NW 35 56 19 30 1009.6 1009.6 0.4
26/11:00am 8.5 0.1 3.8 72 2.0 NW 37 50 20 27 1009.7 1009.7 0.4
26/10:30am 8.5 -0.6 3.8 72 2.0 NW 41 57 22 31 1009.4 1009.4 0.4
26/10:21am 8.2 1.2 4.2 76 1.7 NW 30 48 16 26 1009.4 1009.4 0.4
26/10:00am 7.0 -1.3 4.3 83 1.2 NW 37 52 20 28 1009.7 1009.7 0.4
26/09:30am 7.3 -0.3 4.1 80 1.4 NW 33 46 18 25 1009.5 1009.5 0.2
26/09:00am 6.6 0.3 3.9 83 1.2 NW 26 37 14 20 1009.7 1009.7 15.8
26/08:30am 6.5 0.2 3.7 82 1.2 NW 26 35 14 19 1009.5 1009.5 15.6
26/08:00am 6.9 -1.2 3.3 78 1.5 NW 35 48 19 26 1009.0 1009.0 14.8
26/07:30am 6.5 -1.6 3.3 80 1.3 NW 35 46 19 25 1008.5 1008.5 14.8
26/07:00am 6.1 -1.9 3.9 86 0.9 WNW 35 52 19 28 1008.4 1008.4 14.8
26/06:30am 6.2 0.7 3.9 85 1.0 WNW 22 37 12 20 1007.8 1007.8 13.8
26/06:00am 6.2 -2.6 3.4 82 1.2 NW 39 50 21 27 1007.2 1007.2 13.2
26/05:31am 6.4 -2.8 3.7 83 1.1 WNW 41 59 22 32 1007.0 1007.0 12.8
26/05:30am 6.4 -3.2 3.6 82 1.2 WNW 43 59 23 32 1006.9 1006.9 12.8
26/05:21am 6.5 -2.3 3.5 81 1.3 NW 39 59 21 32 1006.6 1006.6 12.6
26/05:00am 6.8 -2.5 3.1 77 1.6 NW 41 59 22 32 1006.0 1006.0 12.2
26/04:30am 6.3 -1.6 4.1 86 0.9 WNW 35 57 19 31 1006.1 1006.1 12.2
26/04:16am 6.5 -3.0 4.0 84 1.1 WNW 43 61 23 33 1005.8 1005.8 11.4
26/04:00am 6.9 -1.5 3.5 79 1.4 WNW 37 52 20 28 1005.5 1005.5 10.4
26/03:33am 6.4 -1.2 3.7 83 1.1 NW 33 54 18 29 1005.1 1005.1 10.2
26/03:30am 6.2 -1.4 3.7 84 1.1 NW 33 50 18 27 1005.1 1005.1 10.2
26/03:00am 4.8 -4.8 3.5 91 0.5 WNW 43 67 23 36 1005.2 1005.2 9.6
26/02:53am 4.4 -5.8 3.1 91 0.5 WNW 46 67 25 36 1005.5 1005.5 9.2
26/02:48am 4.0 -7.8 2.7 91 0.5 WNW 54 76 29 41 1005.4 1005.4 9.0
26/02:39am 3.6 -8.3 2.0 89 0.6 WNW 54 83 29 45 1006.0 1006.0 8.4
26/02:37am 4.7 -6.0 2.4 85 0.9 WNW 48 83 26 45 1005.7 1005.7 8.0
26/02:30am 7.3 -2.3 3.2 75 1.7 NW 43 63 23 34 1004.8 1004.8 7.4
26/02:27am 7.3 -2.0 3.2 75 1.7 NW 41 63 22 34 1004.7 1004.7 7.4
26/02:00am 6.4 -1.3 3.4 81 1.3 NW 33 46 18 25 1004.7 1004.7 7.4
26/01:34am 7.0 -2.2 3.4 78 1.5 WNW 41 61 22 33 1004.7 1004.7 7.4
26/01:30am 7.2 -2.4 3.4 77 1.6 WNW 43 61 23 33 1004.5 1004.5 7.4
26/01:17am 7.5 -2.1 3.4 75 1.7 NW 43 61 23 33 1004.3 1004.3 7.4
26/01:00am 7.5 -1.8 3.0 73 1.9 NW 41 57 22 31 1004.3 1004.3 7.4
26/12:35am 7.4 -2.3 3.1 74 1.8 NW 43 63 23 34 1004.2 1004.2 7.4
26/12:30am 7.7 -1.6 3.2 73 1.9 NW 41 54 22 29 1004.1 1004.1 7.4
26/12:10am 7.7 -3.3 3.0 72 2.0 NW 50 69 27 37 1003.6 1003.6 7.4
26/12:00am 7.8 -2.4 3.1 72 2.0 NW 46 63 25 34 1003.5 1003.5 7.4
 
Date/Time
EST
Temp
°C
App
Temp
°C
Dew
Point
°C
Rel
Hum
%
Delta-T
°C
Wind Press
QNH
hPa
Press
MSL
hPa
Rain since
9am
mm
Dir  Spd
km/h
Gust
km/h
Spd
kts
Gust
kts
25/11:38pm 8.1 -1.1 3.4 72 2.0 WNW 41 59 22 32 1003.5 1003.5 7.4
25/11:30pm 8.0 -1.5 3.7 74 1.8 WNW 43 59 23 32 1003.5 1003.5 7.4
25/11:00pm 8.1 -0.7 3.8 74 1.9 WNW 39 56 21 30 1003.0 1003.0 7.4
25/10:30pm 8.4 -1.1 3.8 73 2.0 WNW 43 65 23 35 1002.9 1002.9 7.4
25/10:01pm 8.5 -0.1 4.5 76 1.8 NW 39 61 21 33 1002.5 1002.5 7.4
25/10:00pm 8.5 -0.1 4.5 76 1.8 NW 39 56 21 30 1002.7 1002.7 7.4
25/09:31pm 8.6 0.0 4.8 77 1.7 WNW 39 61 21 33 1002.0 1002.0 7.4
25/09:30pm 8.5 -0.1 4.7 77 1.7 WNW 39 56 21 30 1002.0 1002.0 7.4
25/09:21pm 8.3 0.1 4.7 78 1.6 WNW 37 57 20 31 1002.2 1002.2 7.4
25/09:00pm 8.7 0.6 5.3 79 1.5 NW 37 56 20 30 1002.1 1002.1 7.4
25/08:30pm 7.2 -3.6 4.0 80 1.4 WNW 50 83 27 45 1002.2 1002.2 6.4
25/08:20pm 9.4 0.0 5.2 75 1.9 NW 44 65 24 35 1001.5 1001.5 5.8
25/08:00pm 9.5 0.0 4.7 72 2.2 NW 44 61 24 33 1001.1 1001.1 5.8
25/07:30pm 8.7 0.0 6.0 83 1.2 NW 41 56 22 30 1000.9 1000.9 5.8
25/07:00pm 9.1 0.3 7.2 88 0.9 WNW 43 65 23 35 1001.8 1001.8 4.4
25/06:53pm 9.4 0.9 6.8 84 1.2 NW 41 65 22 35 1001.4 1001.4 3.2
25/06:30pm 10.3 1.6 5.9 74 2.0 NNW 41 59 22 32 999.7 999.7 0.2
25/06:03pm 11.0 2.4 4.7 65 2.8 NNW 39 59 21 32 999.2 999.2 0.0
25/06:00pm 10.8 2.2 4.7 66 2.8 NNW 39 56 21 30 999.2 999.2 0.0
25/05:30pm 11.5 3.1 3.8 59 3.4 NNW 37 63 20 34 999.8 999.8 0.0
25/05:01pm 11.5 3.1 3.8 59 3.4 NNW 37 59 20 32 1000.1 1000.1 0.0
25/05:00pm 11.3 3.4 4.1 61 3.2 NNW 35 50 19 27 1000.3 1000.3 0.0
25/04:30pm 11.4 2.7 4.2 61 3.2 NNW 39 67 21 36 1000.4 1000.4 0.0
25/04:03pm 11.3 3.6 5.2 66 2.8 NNW 35 54 19 29 1001.0 1001.0 0.0
25/04:00pm 11.2 3.5 5.3 67 2.7 NNW 35 52 19 28 1001.1 1001.1 0.0
25/03:30pm 11.4 4.6 5.3 66 2.8 NNW 30 48 16 26 1001.5 1001.5 0.0
25/03:22pm 11.6 5.3 5.5 66 2.8 NNW 28 48 15 26 1001.6 1001.6 0.0
25/03:00pm 11.5 4.5 5.8 68 2.7 NW 32 48 17 26 1002.7 1002.7 0.0
25/02:33pm 12.4 5.2 6.0 65 3.0 NW 33 52 18 28 1002.7 1002.7 0.0
25/02:30pm 12.3 4.7 5.9 65 3.0 NW 35 52 19 28 1002.8 1002.8 0.0
25/02:24pm 12.4 5.2 5.8 64 3.1 NW 33 52 18 28 1002.8 1002.8 0.0
25/02:00pm 12.1 4.5 5.9 66 2.9 NW 35 50 19 27 1003.3 1003.3 0.0
25/01:30pm 12.5 4.3 6.5 67 2.9 NW 39 50 21 27 1003.6 1003.6 0.0
25/01:00pm 11.3 4.5 7.0 75 2.1 NW 32 46 17 25 1004.4 1004.4 0.0
25/12:30pm 11.3 4.0 7.2 76 2.0 NW 35 50 19 27 1004.6 1004.6 0.0
25/12:00pm 11.6 4.0 7.7 77 1.9 NW 37 56 20 30 1005.1 1005.1 0.0
25/11:30am 10.9 3.6 7.4 79 1.7 WNW 35 46 19 25 1005.3 1005.3 0.0
25/11:00am 10.8 3.5 7.3 79 1.7 NW 35 46 19 25 1005.4 1005.4 0.0

Other Formats:

Comma delimited format used in spreadsheet applications
http://www.bom.gov.au/fwo/IDV60801/IDV60801.94911.axf

JavaScript Object Notation format (JSON) in row-major order
http://www.bom.gov.au/fwo/IDV60801/IDV60801.94911.json